Akeley, MN

7:28 AM CDT on October 24, 2014 (GMT -0500)
Ten Mile Lake | Change Station
CLOSE
Current Station
Personal Weather Station
Location: Hackensack, MN
Elevation: 1352 ft
Nearby Weather Stations

Elev 1352 ft 47.00 °N, 94.56 °W | Updated 13 minutes ago

Mostly Cloudy
Mostly Cloudy
49.4 °F
Feels Like 49 °F
N
0.0
Wind Variable Wind from SSW
Gusts 0.0 mph

Today
High -- | Low -- °F
--% Chance of Precip.
Yesterday
High -- | Low -- °F
Precip. -- in
7:49 AM 6:15 PM
New Moon, 0% visible
Pressure 29.83 in
Visibility 10.0 miles
Clouds Clear
Windchill 49 °F
Dew Point 45 °F
Humidity 84%
Rainfall 0.00 in
Snow Depth Not available.
UV 0 out of 12
Pollen 2.00 out of 12
Air Quality Not available.
Flu Activity Sporadic
METAR KPKD 241153Z AUTO 00000KT 10SM CLR 07/04 A2981 RMK AO2 SLP102 T00670044 10111 20067 57009 TSNO

More Conditions Fewer Conditions

Pressure 29.83 in
Visibility 10.0 miles
Clouds Clear
Windchill 49 °F
Dew Point 45 °F
Humidity 84%
Rainfall 0.00 in
Snow Depth Not available.
UV 0 out of 12
Pollen 2.00 out of 12
Air Quality Not available.
Flu Activity Sporadic
METAR KPKD 241153Z AUTO 00000KT 10SM CLR 07/04 A2981 RMK AO2 SLP102 T00670044 10111 20067 57009 TSNO

More Conditions Fewer Conditions

10-Day Weather Forecast

Almanac

Astronomy

Oct. 24, 2014 Rise Set
Actual Time 7:49 AM CDT 6:15 PM CDT
Civil Twilight 7:18 AM CDT 6:46 PM CDT
Nautical Twilight 6:43 AM CDT 7:22 PM CDT
Astronomical Twilight 6:07 AM CDT 7:57 PM CDT
Moon 8:31 AM CDT 6:52 PM CDT
Length of Visible Light 11h 28m
Length of Day
10h 25m
Tomorrow will be 3m 8s shorter.
New Moon, 0% of the Moon is Illuminated
Today
New Moon
Oct 30
First Quarter
Nov 6
Full
Nov 14
Last Quarter
Nov 22
New

Today's Extremes

State Highs State Lows

Community

WunderPhotos

Upload Photos

1,764,533 photos uploaded!

Nearby

Snow Depth

Station Depth Elevation
No new snow has been reported.

Earthquake Activity

City Distance Mag. Time & Date
No recent earthquake activity has been reported nearby.
Minimum magnitude displayed is 2.5.

Coastal Water Temperatures

Place Temperature
No Stations Reporting

Nearby Weather Stations